Time;durP1;ratioP1;P1;durP2;ratioP2;P2;SDS_P1;SDS_P2;PMS_P1;PMS_P2;Temp;Humidity;BMP_temperature;BMP_pressure;BME280_temperature;BME280_humidity;BME280_pressure;Samples;Min_cycle;Max_cycle;Signal;HPM_P1;HPM_P2
2022/08/04 00:01:01;;;;;;;0.00;0.00;;;22.50;69.30;;;23.53;60.00;101357.22;2039220;29;20109;-76
2022/08/04 00:02:13;;;;;;;0.10;0.10;;;22.40;69.40;;;23.51;59.96;101354.09;2037194;29;20409;-76
2022/08/04 00:03:21;;;;;;;0.00;0.00;;;22.40;69.50;;;23.54;59.76;101361.53;2039338;29;20089;-76
2022/08/04 00:04:37;;;;;;;0.00;0.00;;;22.30;69.60;;;23.53;59.55;101363.50;2039974;29;20056;-76
2022/08/04 00:05:53;;;;;;;0.10;0.10;;;22.20;69.80;;;23.53;59.83;101359.97;2039755;29;20514;-75
2022/08/04 00:07:06;;;;;;;0.00;0.00;;;22.20;70.00;;;23.48;59.88;101354.94;2039649;29;20078;-76
2022/08/04 00:08:22;;;;;;;0.00;0.00;;;22.20;70.10;;;23.44;59.81;101356.94;2031333;29;20058;-75
2022/08/04 00:09:36;;;;;;;0.00;0.00;;;22.20;70.40;;;23.42;59.94;101351.09;2026413;29;20076;-75
2022/08/04 00:10:42;;;;;;;0.10;0.10;;;22.10;70.40;;;23.40;59.97;101348.72;2033770;29;20153;-75
2022/08/04 00:11:50;;;;;;;0.03;0.00;;;22.10;70.50;;;23.42;60.02;101351.09;2031040;29;20532;-76
2022/08/04 00:12:57;;;;;;;0.10;0.10;;;22.00;70.60;;;23.43;59.92;101355.38;2033035;29;20344;-76
2022/08/04 00:14:06;;;;;;;0.00;0.00;;;22.00;70.70;;;23.41;59.84;101347.53;2035668;29;20067;-76
2022/08/04 00:15:13;;;;;;;0.00;0.00;;;22.00;70.80;;;23.39;60.34;101344.41;2031835;29;20091;-76
2022/08/04 00:16:20;;;;;;;0.00;0.00;;;22.00;71.50;;;23.40;59.92;101353.47;2026513;29;20060;-76
2022/08/04 00:17:31;;;;;;;0.00;0.00;;;21.90;71.00;;;23.37;60.11;101348.78;2033009;29;20079;-76
2022/08/04 00:18:41;;;;;;;0.10;0.10;;;21.90;71.10;;;23.33;60.15;101353.56;2024860;29;20065;-76
2022/08/04 00:19:46;;;;;;;;;;;21.90;71.20;;;23.34;59.92;101349.63;2017718;29;20076;-77
2022/08/04 00:20:52;;;;;;;0.10;0.10;;;21.80;71.20;;;23.30;60.29;101343.38;2025286;29;19935;-77
2022/08/04 00:22:00;;;;;;;0.00;0.00;;;21.80;71.30;;;23.24;60.41;101343.03;2039058;29;20130;-76
2022/08/04 00:23:04;;;;;;;0.10;0.10;;;21.80;71.40;;;23.21;60.14;101343.81;2028514;29;20048;-76
2022/08/04 00:24:11;;;;;;;0.00;0.00;;;21.80;71.50;;;23.21;60.27;101334.81;2027964;29;20468;-77
2022/08/04 00:25:15;;;;;;;0.05;0.05;;;21.70;71.60;;;23.19;60.66;101339.94;2021749;29;20584;-77
2022/08/04 00:26:19;;;;;;;0.00;0.00;;;21.70;72.30;;;23.16;60.47;101332.50;2006935;29;20517;-77
2022/08/04 00:27:22;;;;;;;0.00;0.00;;;21.70;71.70;;;23.16;60.84;101333.28;2015081;29;20617;-77
2022/08/04 00:28:26;;;;;;;0.10;0.10;;;21.70;71.80;;;23.11;60.90;101332.97;2026923;29;20536;-76
2022/08/04 00:29:32;;;;;;;0.10;0.10;;;21.80;71.80;;;23.06;61.09;101327.91;2021710;29;20498;-76
2022/08/04 00:30:36;;;;;;;0.05;0.00;;;21.90;71.80;;;23.00;61.29;101326.81;2024485;29;20060;-76
2022/08/04 00:31:41;;;;;;;0.00;0.00;;;21.90;71.60;;;22.99;61.57;101333.53;2025830;29;20413;-76
2022/08/04 00:33:00;;;;;;;;;;;21.90;71.50;;;23.04;61.28;101327.56;2025286;29;20079;-76
2022/08/04 00:34:03;;;;;;;0.00;0.00;;;21.90;71.60;;;23.08;60.88;101328.28;2020440;29;20083;-76
2022/08/04 00:35:09;;;;;;;0.00;0.00;;;21.90;71.40;;;23.08;61.14;101320.81;2014799;29;20081;-76
2022/08/04 00:36:12;;;;;;;0.00;0.00;;;21.90;71.30;;;23.10;61.02;101326.66;2022717;29;20135;-76
2022/08/04 00:37:16;;;;;;;0.00;0.00;;;21.90;71.30;;;23.11;60.99;101321.94;2029336;29;20056;-76
2022/08/04 00:38:19;;;;;;;0.05;0.05;;;22.00;71.30;;;23.11;61.30;101317.22;2030844;29;20093;-76
2022/08/04 00:39:26;;;;;;;0.08;0.00;;;22.00;71.20;;;23.16;60.72;101327.00;2011980;29;20057;-76
2022/08/04 00:40:40;;;;;;;0.00;0.00;;;22.00;71.10;;;23.10;61.08;101320.38;2014089;29;20045;-76
2022/08/04 00:42:08;;;;;;;0.03;0.03;;;22.10;71.10;;;23.10;61.12;101323.16;2026869;29;20084;-76
2022/08/04 00:43:20;;;;;;;0.00;0.00;;;22.10;71.00;;;23.06;61.12;101325.94;2029145;29;20095;-76
2022/08/04 00:44:38;;;;;;;0.00;0.00;;;22.10;70.90;;;23.07;61.02;101321.97;2030478;29;20538;-76
2022/08/04 00:46:28;;;;;;;0.00;0.00;;;22.10;70.90;;;23.10;61.14;101323.16;2022079;29;20159;-76
2022/08/04 00:47:48;;;;;;;0.00;0.00;;;22.10;70.80;;;23.12;60.94;101326.28;2019132;29;20127;-77
2022/08/04 00:49:10;;;;;;;0.00;0.00;;;22.10;70.80;;;23.08;60.99;101320.00;2019838;29;20072;-77
2022/08/04 00:50:24;;;;;;;0.00;0.00;;;22.10;70.70;;;23.01;61.27;101320.88;2018724;29;20507;-77
2022/08/04 00:51:41;;;;;;;0.10;0.10;;;22.10;70.50;;;22.97;61.73;101320.16;2022518;29;20080;-77
2022/08/04 00:53:01;;;;;;;0.00;0.00;;;22.10;70.50;;;22.90;61.62;101323.00;2030383;29;20086;-77
2022/08/04 00:54:16;;;;;;;0.03;0.03;;;22.20;70.70;;;22.87;62.01;101334.84;2020788;29;20083;-76
2022/08/04 00:55:54;;;;;;;0.00;0.00;;;22.10;70.60;;;22.84;61.78;101327.41;2023211;29;20061;-77
2022/08/04 00:57:28;;;;;;;0.08;0.08;;;22.10;70.70;;;22.84;61.73;101329.38;2029723;29;20543;-77
2022/08/04 00:58:51;;;;;;;0.10;0.10;;;22.10;70.80;;;22.84;61.85;101334.88;2028481;29;20183;-77
2022/08/04 01:00:15;;;;;;;0.10;0.10;;;22.10;70.80;;;22.78;62.05;101326.31;2020513;29;20056;-76
2022/08/04 01:01:59;;;;;;;0.08;0.08;;;22.10;70.90;;;22.77;62.38;101332.22;2023222;29;20428;-76
2022/08/04 01:03:14;;;;;;;0.00;0.00;;;22.10;71.00;;;22.80;62.27;101329.41;2020546;29;20052;-76
2022/08/04 01:04:29;;;;;;;0.00;0.00;;;22.00;71.10;;;22.84;61.89;101332.13;2017136;29;20064;-76
2022/08/04 01:05:48;;;;;;;0.10;0.10;;;22.00;71.10;;;22.85;62.06;101333.69;2022652;29;20516;-77
2022/08/04 01:07:12;;;;;;;0.10;0.10;;;21.90;71.30;;;22.84;61.77;101324.66;2021340;29;20048;-77
2022/08/04 01:09:00;;;;;;;0.10;0.10;;;21.80;71.40;;;22.82;61.88;101323.47;2014461;29;20521;-78
2022/08/04 01:10:09;;;;;;;0.00;0.00;;;21.70;71.70;;;22.78;62.18;101323.53;2018857;29;20112;-77
2022/08/04 01:11:36;;;;;;;0.00;0.00;;;21.70;71.80;;;22.71;61.94;101328.34;2016111;29;20061;-77
2022/08/04 01:13:44;;;;;;;0.10;0.10;;;21.60;72.10;;;22.58;62.38;101314.31;2019530;29;20056;-77
2022/08/04 01:15:02;;;;;;;0.10;0.10;;;21.60;72.50;;;22.56;62.61;101329.69;2011663;29;20057;-77
2022/08/04 01:16:10;;;;;;;0.10;0.10;;;21.50;72.60;;;22.51;62.69;101319.09;2017522;29;20061;-76
2022/08/04 01:17:23;;;;;;;0.00;0.00;;;21.40;72.70;;;22.47;63.18;101312.88;2028288;29;20571;-76
2022/08/04 01:18:57;;;;;;;0.00;0.00;;;21.40;73.00;;;22.40;63.48;101315.69;2022909;29;20061;-77
2022/08/04 01:20:05;;;;;;;0.10;0.10;;;21.40;73.00;;;22.39;63.39;101311.38;2025215;29;20127;-77
2022/08/04 01:21:48;;;;;;;0.10;0.10;;;21.30;73.20;;;22.38;63.14;101312.53;2028824;29;20079;-78
2022/08/04 01:23:51;;;;;;;0.10;0.10;;;21.30;73.80;;;22.40;62.99;101308.22;2030764;29;20048;-78
2022/08/04 01:25:55;;;;;;;0.10;0.10;;;21.20;74.20;;;22.43;62.60;101309.34;2010276;29;20065;-77
2022/08/04 01:27:03;;;;;;;0.10;0.10;;;21.20;74.40;;;22.44;63.08;101316.44;2023428;29;20076;-75
2022/08/04 01:28:38;;;;;;;0.10;0.10;;;21.10;74.10;;;22.40;63.30;101299.97;2033222;29;20094;-75
2022/08/04 01:29:51;;;;;;;0.10;0.10;;;21.10;74.30;;;22.38;63.09;101298.78;2035623;29;20090;-76
2022/08/04 01:31:06;;;;;;;0.10;0.10;;;21.10;74.30;;;22.36;63.28;101299.19;2023340;29;20059;-76
2022/08/04 01:32:26;;;;;;;0.00;0.00;;;21.10;74.30;;;22.37;63.71;101305.50;2020341;29;20046;-76
2022/08/04 01:33:34;;;;;;;0.10;0.10;;;21.10;74.40;;;22.36;63.89;101304.69;2033125;29;20065;-76
2022/08/04 01:35:06;;;;;;;0.00;0.00;;;21.20;74.40;;;22.36;63.60;101304.69;2031381;29;20134;-76
2022/08/04 01:36:11;;;;;;;0.10;0.10;;;21.20;74.40;;;22.36;63.49;101298.44;2031912;29;20115;-76
2022/08/04 01:37:31;;;;;;;0.00;0.00;;;21.20;74.30;;;22.33;63.66;101294.53;2023334;29;20564;-76
2022/08/04 01:38:35;;;;;;;0.00;0.00;;;21.20;74.20;;;22.34;63.89;101296.09;2030132;29;20056;-76
2022/08/04 01:39:50;;;;;;;0.10;0.10;;;21.20;74.20;;;22.35;63.65;101296.84;2031917;29;20530;-76
2022/08/04 01:40:59;;;;;;;0.10;0.10;;;21.20;74.20;;;22.36;63.54;101298.44;2026488;29;20436;-76
2022/08/04 01:42:03;;;;;;;0.10;0.10;;;21.30;74.30;;;22.39;63.73;101295.63;2024940;29;20049;-76
2022/08/04 01:43:09;;;;;;;0.00;0.00;;;21.30;74.20;;;22.39;63.87;101298.38;2034814;29;20043;-76
2022/08/04 01:44:13;;;;;;;0.10;0.10;;;21.40;74.10;;;22.39;64.00;101294.88;2041610;29;20083;-76
2022/08/04 01:45:18;;;;;;;0.10;0.10;;;21.40;74.00;;;22.43;63.58;101301.09;2038708;29;20082;-76
2022/08/04 01:46:23;;;;;;;0.10;0.10;;;21.40;73.90;;;22.46;63.36;101294.78;2030706;29;20048;-76
2022/08/04 01:47:30;;;;;;;0.10;0.10;;;21.40;73.80;;;22.48;63.73;101295.16;2025578;29;20131;-75
2022/08/04 01:48:37;;;;;;;0.10;0.10;;;21.40;73.70;;;22.52;63.87;101298.66;2018849;29;20067;-76
2022/08/04 01:49:47;;;;;;;0.00;0.00;;;21.50;73.70;;;22.54;63.57;101296.28;2018764;29;20060;-77
2022/08/04 01:50:51;;;;;;;0.10;0.10;;;21.50;73.60;;;22.55;63.36;101304.13;2033685;29;20390;-77
2022/08/04 01:51:57;;;;;;;0.08;0.08;;;21.50;73.60;;;22.57;63.10;101300.97;2038808;29;20067;-77
2022/08/04 01:53:04;;;;;;;0.08;0.08;;;21.50;73.60;;;22.58;63.47;101297.03;2037345;29;20056;-78
2022/08/04 01:54:08;;;;;;;0.00;0.00;;;21.50;73.50;;;22.58;63.32;101303.31;2038442;29;20043;-77
2022/08/04 01:55:14;;;;;;;0.00;0.00;;;21.40;73.60;;;22.58;63.41;101308.81;2033820;29;20519;-76
2022/08/04 01:56:18;;;;;;;0.00;0.00;;;21.50;73.60;;;22.58;63.53;101294.28;2030927;29;20059;-76
2022/08/04 01:57:25;;;;;;;0.00;0.00;;;21.50;73.60;;;22.59;63.46;101293.88;2038387;29;20519;-77
2022/08/04 01:58:41;;;;;;;0.10;0.10;;;21.40;73.60;;;22.59;63.01;101290.34;2032082;29;20112;-76
2022/08/04 01:59:46;;;;;;;0.00;0.00;;;21.40;73.70;;;22.60;63.29;101294.63;2031758;29;20048;-77
2022/08/04 02:01:01;;;;;;;0.00;0.00;;;21.40;73.80;;;22.58;62.96;101302.56;2041284;29;20048;-76
2022/08/04 02:02:10;;;;;;;0.00;0.00;;;21.40;73.70;;;22.54;63.44;101294.31;2037534;29;20163;-77
2022/08/04 02:03:14;;;;;;;0.00;0.00;;;21.40;73.70;;;22.51;63.04;101297.88;2022601;29;20560;-77
2022/08/04 02:04:21;;;;;;;0.10;0.10;;;21.40;73.70;;;22.48;63.22;101292.41;2018849;29;20145;-77
2022/08/04 02:05:27;;;;;;;0.00;0.00;;;21.40;73.70;;;22.46;63.27;101298.31;2034194;29;20172;-77
2022/08/04 02:07:04;;;;;;;0.05;0.05;;;21.40;73.90;;;22.44;63.85;101297.94;2039669;29;20135;-77
2022/08/04 02:08:21;;;;;;;0.10;0.10;;;21.30;73.90;;;22.41;63.78;101304.25;2039315;29;20063;-77
2022/08/04 02:09:37;;;;;;;0.08;0.08;;;21.30;74.00;;;22.42;63.53;101296.78;2037795;29;20515;-78
2022/08/04 02:11:14;;;;;;;0.10;0.10;;;21.30;74.10;;;22.45;63.47;101295.97;2034550;29;20058;-78
2022/08/04 02:12:26;;;;;;;0.08;0.08;;;21.30;74.10;;;22.50;63.36;101293.53;2034766;29;20067;-77
2022/08/04 02:13:39;;;;;;;0.10;0.10;;;21.30;74.00;;;22.53;63.16;101287.28;2040618;29;20532;-77
2022/08/04 02:14:49;;;;;;;0.10;0.10;;;21.40;73.90;;;22.56;63.19;101291.94;2038042;29;20122;-77
2022/08/04 02:16:02;;;;;;;0.00;0.00;;;21.50;73.80;;;22.59;63.38;101282.09;2033782;29;20056;-77
2022/08/04 02:17:11;;;;;;;0.00;0.00;;;21.50;73.70;;;22.64;63.35;101278.88;2040515;29;20056;-77
2022/08/04 02:18:23;;;;;;;0.00;0.00;;;21.50;73.50;;;22.67;62.99;101281.59;2031377;29;20087;-77
2022/08/04 02:19:36;;;;;;;0.10;0.10;;;21.60;73.50;;;22.69;63.18;101284.69;2027722;29;20063;-77
2022/08/04 02:20:45;;;;;;;0.05;0.05;;;21.60;73.30;;;22.73;62.93;101279.16;2026527;29;20052;-77
2022/08/04 02:21:57;;;;;;;0.10;0.10;;;21.70;73.20;;;22.73;62.91;101279.16;2025533;29;20100;-77
2022/08/04 02:23:03;;;;;;;0.10;0.10;;;21.70;73.10;;;22.78;63.05;101286.97;2024003;29;20119;-78
2022/08/04 02:24:12;;;;;;;0.10;0.10;;;21.70;73.00;;;22.79;62.81;101280.25;2023885;29;20092;-78
2022/08/04 02:25:23;;;;;;;0.10;0.10;;;21.70;73.00;;;22.82;63.04;101291.22;2029969;29;20416;-78
2022/08/04 02:26:29;;;;;;;0.08;0.08;;;21.80;72.90;;;22.84;62.57;101280.59;2031682;29;20076;-77
2022/08/04 02:27:53;;;;;;;0.10;0.10;;;21.80;72.80;;;22.85;62.52;101282.13;2029602;29;20052;-77
2022/08/04 02:29:13;;;;;;;;;;;21.80;72.80;;;22.89;62.68;101285.66;2020046;29;20547;-77
2022/08/04 02:30:18;;;;;;;0.00;0.00;;;21.70;73.20;;;22.89;62.48;101287.59;2029435;29;20379;-77
2022/08/04 02:31:30;;;;;;;0.03;0.03;;;21.70;72.90;;;22.86;62.27;101286.47;2023156;29;20044;-77
2022/08/04 02:32:38;;;;;;;0.10;0.10;;;21.70;73.10;;;22.85;62.59;101284.13;2027187;29;20532;-77
2022/08/04 02:33:44;;;;;;;0.10;0.10;;;21.70;73.10;;;22.79;62.71;101283.00;2033809;29;20126;-77
2022/08/04 02:34:53;;;;;;;0.03;0.03;;;21.70;73.10;;;22.81;62.92;101286.13;2030579;29;20087;-76
2022/08/04 02:36:01;;;;;;;0.10;0.10;;;21.70;73.20;;;22.79;62.99;101285.75;2030630;29;20104;-77
2022/08/04 02:37:05;;;;;;;0.10;0.10;;;21.80;73.30;;;22.80;63.15;101284.59;2021852;29;20151;-77
2022/08/04 02:38:21;;;;;;;0.10;0.10;;;21.70;73.30;;;22.80;63.53;101292.84;2014437;29;20060;-77
2022/08/04 02:39:33;;;;;;;0.00;0.00;;;21.80;73.40;;;22.80;63.16;101285.34;2025650;29;20056;-77
2022/08/04 02:40:53;;;;;;;0.10;0.10;;;21.80;73.40;;;22.82;63.19;101282.19;2025185;29;20435;-77
2022/08/04 02:42:01;;;;;;;0.10;0.10;;;21.70;73.30;;;22.81;63.00;101283.38;2015693;29;20430;-77
2022/08/04 02:43:07;;;;;;;0.00;0.00;;;21.70;73.40;;;22.80;62.84;101287.34;2024950;29;20480;-77
2022/08/04 02:44:11;;;;;;;0.10;0.10;;;21.70;73.40;;;22.81;63.08;101286.13;2040105;29;20480;-77
2022/08/04 02:45:20;;;;;;;0.10;0.10;;;21.70;73.30;;;22.81;63.29;101286.94;2026133;29;20063;-77
2022/08/04 02:46:30;;;;;;;0.15;0.15;;;21.70;73.20;;;22.82;62.88;101284.94;2023277;29;20132;-77
2022/08/04 02:47:33;;;;;;;0.10;0.10;;;21.70;73.20;;;22.83;62.62;101289.25;2022794;29;20080;-77
2022/08/04 02:48:57;;;;;;;0.10;0.10;;;21.70;73.20;;;22.84;62.57;101280.59;2029023;29;20507;-77
2022/08/04 02:50:01;;;;;;;0.10;0.10;;;21.70;73.10;;;22.85;62.69;101284.13;2028330;29;20086;-77
2022/08/04 02:51:06;;;;;;;0.10;0.10;;;21.70;73.10;;;22.82;62.62;101279.44;2029102;29;20055;-77
2022/08/04 02:52:09;;;;;;;0.10;0.10;;;21.70;73.70;;;22.85;62.70;101282.13;2030010;29;20420;-77
2022/08/04 02:53:18;;;;;;;0.10;0.10;;;21.70;73.10;;;22.84;62.83;101279.81;2028211;29;20060;-77
2022/08/04 02:54:26;;;;;;;0.10;0.10;;;21.70;73.10;;;22.88;62.78;101286.06;2030030;29;20052;-77
2022/08/04 02:55:36;;;;;;;0.10;0.10;;;21.70;73.10;;;22.87;62.65;101274.25;2030084;29;20061;-77
2022/08/04 02:56:39;;;;;;;0.10;0.10;;;21.70;73.20;;;22.88;62.56;101286.06;2036579;29;20090;-77
2022/08/04 02:57:49;;;;;;;0.10;0.10;;;21.60;73.10;;;22.87;62.37;101284.47;2036292;29;20074;-76
2022/08/04 02:58:59;;;;;;;0.10;0.10;;;21.60;73.10;;;22.87;62.64;101285.28;2029950;29;20055;-76
2022/08/04 03:00:10;;;;;;;0.10;0.10;;;21.70;73.30;;;22.88;62.56;101288.81;2028469;29;20080;-76
2022/08/04 03:01:12;;;;;;;0.05;0.05;;;21.70;73.20;;;22.90;62.51;101286.41;2029685;29;20092;-77
2022/08/04 03:02:34;;;;;;;0.10;0.10;;;21.60;73.20;;;22.87;62.73;101285.28;2028224;29;20080;-78
2022/08/04 03:03:45;;;;;;;0.10;0.10;;;21.70;73.30;;;22.89;62.68;101279.34;2024277;29;20048;-77
2022/08/04 03:04:57;;;;;;;0.10;0.10;;;21.70;73.20;;;22.89;62.61;101280.13;2015354;29;20091;-76
2022/08/04 03:06:44;;;;;;;0.00;0.00;;;21.70;73.20;;;22.89;62.57;101279.34;2023114;29;20088;-77
2022/08/04 03:09:00;;;;;;;0.10;0.10;;;21.70;73.30;;;22.90;62.54;101286.41;2038121;29;20043;-77
2022/08/04 03:11:03;;;;;;;0.10;0.10;;;21.60;73.40;;;22.90;62.21;101278.16;2012629;29;20071;-77
2022/08/04 03:12:56;;;;;;;0.00;0.00;;;21.60;73.70;;;22.86;61.90;101277.41;1985528;29;20062;-77
2022/08/04 03:14:51;;;;;;;0.00;0.00;;;21.60;73.50;;;22.84;62.44;101268.78;2006407;29;20053;-77
2022/08/04 03:16:29;;;;;;;0.10;0.10;;;21.60;73.70;;;22.82;62.55;101273.91;2034990;29;20047;-77
2022/08/04 03:18:36;;;;;;;0.10;0.10;;;21.60;73.70;;;22.79;62.13;101278.28;2021972;29;20532;-77
2022/08/04 03:20:22;;;;;;;0.10;0.10;;;21.50;73.60;;;22.76;62.72;101272.81;2013521;29;20044;-78
2022/08/04 03:22:18;;;;;;;0.10;0.10;;;21.50;73.90;;;22.70;63.04;101269.75;2030446;29;20490;-75
2022/08/04 03:24:12;;;;;;;0.10;0.10;;;21.40;73.80;;;22.65;62.78;101275.72;2020671;29;20059;-77
2022/08/04 03:26:01;;;;;;;0.00;0.00;;;21.40;74.00;;;22.62;63.34;101273.00;2017638;29;20131;-77
2022/08/04 03:27:24;;;;;;;0.10;0.10;;;21.40;74.10;;;22.60;62.78;101258.84;2025666;29;20113;-77
2022/08/04 03:29:17;;;;;;;0.00;0.00;;;21.40;74.10;;;22.58;63.10;101264.03;2025447;29;20598;-77
2022/08/04 03:31:03;;;;;;;0.10;0.10;;;21.40;74.30;;;22.59;63.35;101269.09;2021886;29;20063;-77
2022/08/04 03:33:03;;;;;;;0.10;0.10;;;21.40;74.20;;;22.58;63.47;101262.03;2026057;29;20056;-78
2022/08/04 03:34:36;;;;;;;0.00;0.00;;;21.40;74.40;;;22.56;63.64;101253.41;2030326;29;20058;-77
2022/08/04 03:36:31;;;;;;;0.00;0.00;;;21.40;74.20;;;22.56;63.51;101258.13;2024658;29;20457;-78
2022/08/04 03:38:21;;;;;;;0.10;0.10;;;21.40;74.40;;;22.56;63.72;101250.66;1998600;29;20054;-77
2022/08/04 03:39:55;;;;;;;0.10;0.10;;;21.40;74.70;;;22.55;63.72;101253.84;2030346;29;20108;-77
2022/08/04 03:41:51;;;;;;;0.10;0.10;;;21.40;75.10;;;22.49;63.72;101242.44;2010745;29;20081;-77
2022/08/04 03:43:55;;;;;;;0.00;0.00;;;21.40;74.60;;;22.51;63.72;101255.81;2030383;29;20515;-79
2022/08/04 03:46:01;;;;;;;0.10;0.10;;;21.40;74.50;;;22.51;63.99;101253.03;2003463;29;20064;-76
2022/08/04 03:47:58;;;;;;;0.10;0.10;;;21.50;74.50;;;22.51;63.68;101250.28;2011730;29;20059;-74
2022/08/04 03:49:45;;;;;;;0.10;0.10;;;21.50;74.20;;;22.51;63.55;101251.09;1993034;29;20513;-75
2022/08/04 03:53:08;;;;;;;0.08;0.08;;;21.40;74.30;;;22.47;63.91;101244.06;2018433;29;20524;-75
2022/08/04 03:55:04;;;;;;;0.10;0.10;;;21.40;74.20;;;22.47;64.10;101247.59;2017701;29;20060;-76
2022/08/04 03:56:47;;;;;;;0.10;0.10;;;21.50;74.60;;;22.48;64.47;101245.63;2015108;29;20060;-75
2022/08/04 03:58:58;;;;;;;0.10;0.10;;;21.50;74.60;;;22.46;64.22;101242.50;2024888;29;20554;-76
2022/08/04 04:00:10;;;;;;;0.10;0.10;;;21.50;74.80;;;22.45;64.42;101246.44;2005016;29;20061;-75
2022/08/04 04:02:09;;;;;;;0.00;0.00;;;21.50;74.50;;;22.42;64.29;101250.78;2024291;29;20056;-75
2022/08/04 04:03:43;;;;;;;0.10;0.10;;;21.50;74.60;;;22.41;64.79;101248.44;2019618;29;20084;-75
2022/08/04 04:05:19;;;;;;;0.10;0.10;;;21.50;74.70;;;22.38;64.61;101261.06;2018232;29;20552;-75
2022/08/04 04:07:00;;;;;;;0.05;0.05;;;21.40;74.90;;;22.38;64.99;101260.28;2029778;29;20409;-76
2022/08/04 04:08:53;;;;;;;0.10;0.10;;;21.40;74.80;;;22.39;64.52;101257.09;2027987;29;20098;-76
2022/08/04 04:10:21;;;;;;;0.10;0.10;;;21.40;75.00;;;22.38;64.81;101250.06;2025652;29;20425;-76
2022/08/04 04:12:12;;;;;;;0.10;0.10;;;21.40;74.80;;;22.40;64.79;101255.16;2025987;29;20465;-76
2022/08/04 04:14:02;;;;;;;0.10;0.10;;;21.40;74.80;;;22.41;64.77;101246.47;2006867;29;20133;-77
2022/08/04 04:15:27;;;;;;;0.10;0.10;;;21.40;75.00;;;22.40;64.42;101247.69;2024001;29;20102;-76
2022/08/04 04:16:57;;;;;;;0.20;0.20;;;21.30;74.90;;;22.42;64.52;101247.25;2007992;29;20148;-76
2022/08/04 04:18:20;;;;;;;0.20;0.20;;;21.30;74.80;;;22.39;64.53;101256.34;2019533;29;20521;-76
2022/08/04 04:20:02;;;;;;;0.10;0.10;;;21.30;75.10;;;22.41;64.78;101248.44;2022387;29;20049;-76
2022/08/04 04:21:34;;;;;;;0.10;0.10;;;21.30;74.90;;;22.41;64.40;101256.69;2015498;29;20049;-76
2022/08/04 04:22:59;;;;;;;0.10;0.10;;;21.30;75.20;;;22.40;64.66;101247.69;2025614;29;20064;-76
2022/08/04 04:24:45;;;;;;;0.20;0.20;;;21.30;75.10;;;22.43;64.54;101259.81;2017929;29;20095;-76
2022/08/04 04:26:05;;;;;;;0.20;0.20;;;21.30;75.30;;;22.45;64.25;101246.44;2027834;29;20138;-77
2022/08/04 04:27:18;;;;;;;0.20;0.20;;;21.30;75.20;;;22.46;64.39;101250.75;2033352;29;20087;-76
2022/08/04 04:28:45;;;;;;;0.10;0.10;;;21.30;75.20;;;22.48;64.56;101256.63;2032162;29;20059;-76
2022/08/04 04:30:02;;;;;;;0.10;0.10;;;21.30;75.80;;;22.50;64.57;101254.25;2025325;29;20067;-76
2022/08/04 04:31:36;;;;;;;0.10;0.10;;;21.30;75.50;;;22.47;64.21;101250.34;2032159;29;20052;-77
2022/08/04 04:33:04;;;;;;;0.20;0.20;;;21.20;75.40;;;22.52;64.54;101252.66;2033595;29;20076;-76
2022/08/04 04:34:30;;;;;;;0.10;0.10;;;21.30;75.50;;;22.54;64.02;101252.25;2029368;29;20048;-76
2022/08/04 04:35:41;;;;;;;0.10;0.10;;;21.30;75.60;;;22.57;63.93;101248.69;2030781;29;20520;-76
2022/08/04 04:37:05;;;;;;;0.20;0.20;;;21.30;75.50;;;22.58;64.21;101255.75;2031469;29;20055;-77
2022/08/04 04:38:47;;;;;;;0.20;0.20;;;21.30;75.50;;;22.60;64.03;101250.59;2028801;29;20107;-76
2022/08/04 04:40:15;;;;;;;0.20;0.20;;;21.30;75.70;;;22.63;64.23;101247.06;2029142;29;20130;-77
2022/08/04 04:41:36;;;;;;;0.10;0.10;;;21.30;75.50;;;22.64;64.06;101246.63;2032619;29;20090;-76
2022/08/04 04:43:00;;;;;;;0.10;0.10;;;21.30;75.40;;;22.66;63.94;101248.97;2030095;29;20081;-76
2022/08/04 04:44:55;;;;;;;0.10;0.10;;;21.30;75.40;;;22.69;63.89;101245.41;2027554;29;20087;-77
2022/08/04 04:46:11;;;;;;;0.10;0.10;;;21.30;75.50;;;22.71;63.78;101243.00;2029834;29;20465;-76
2022/08/04 04:47:29;;;;;;;0.10;0.10;;;21.30;75.40;;;22.71;63.86;101240.22;2026602;29;20508;-77
2022/08/04 04:49:01;;;;;;;0.17;0.17;;;21.30;75.40;;;22.74;63.83;101244.94;2032714;29;20585;-76
2022/08/04 04:50:14;;;;;;;0.10;0.10;;;21.30;75.40;;;22.77;63.96;101241.34;2035487;29;20051;-77
2022/08/04 04:51:27;;;;;;;0.10;0.10;;;21.40;75.40;;;22.76;63.44;101242.53;2032899;29;20151;-77
2022/08/04 04:52:40;;;;;;;0.10;0.10;;;21.40;75.30;;;22.78;63.66;101245.66;2025538;29;20060;-77
2022/08/04 04:53:55;;;;;;;0.10;0.10;;;21.40;75.40;;;22.80;63.89;101254.28;2031094;29;20056;-78
2022/08/04 04:55:13;;;;;;;0.10;0.10;;;21.40;75.30;;;22.83;63.34;101250.72;2034593;29;20052;-78
2022/08/04 04:56:34;;;;;;;0.10;0.10;;;21.40;75.30;;;22.85;63.56;101254.59;2041558;29;20471;-79
2022/08/04 04:57:38;;;;;;;0.10;0.10;;;21.50;75.40;;;22.86;63.68;101245.16;2017755;29;20049;-78
2022/08/04 04:58:58;;;;;;;0.10;0.10;;;21.50;75.30;;;22.90;63.38;101247.84;2021326;29;20053;-78
2022/08/04 05:00:07;;;;;;;0.10;0.10;;;21.50;75.30;;;22.92;63.84;101248.22;2021910;29;20143;-78
2022/08/04 05:01:59;;;;;;;0.10;0.10;;;21.50;75.40;;;22.95;63.55;101252.91;2027631;29;20060;-78
2022/08/04 05:03:34;;;;;;;0.10;0.10;;;21.50;75.40;;;22.97;63.67;101245.81;2017393;29;20068;-78
2022/08/04 05:05:19;;;;;;;0.10;0.10;;;21.50;75.70;;;23.02;63.57;101241.81;2024822;29;20098;-77
2022/08/04 05:06:46;;;;;;;0.10;0.10;;;21.50;75.80;;;23.02;63.67;101247.31;2036765;29;20118;-78
2022/08/04 05:08:40;;;;;;;0.13;0.13;;;21.50;75.70;;;23.06;63.37;101245.28;2025344;29;20141;-79
2022/08/04 05:10:06;;;;;;;0.10;0.10;;;21.60;75.90;;;23.08;63.39;101235.41;2025752;29;20044;-76
2022/08/04 05:11:45;;;;;;;0.10;0.10;;;21.60;75.70;;;23.15;63.22;101240.81;2032369;29;20134;-76
2022/08/04 05:13:09;;;;;;;0.10;0.10;;;21.60;75.60;;;23.19;63.13;101240.75;2028293;29;20055;-77
2022/08/04 05:14:41;;;;;;;0.10;0.10;;;21.60;75.60;;;23.23;62.94;101241.50;2033967;29;20115;-76
2022/08/04 05:15:48;;;;;;;0.10;0.10;;;21.60;75.40;;;23.24;62.81;101237.53;2032125;29;20056;-76
2022/08/04 05:17:02;;;;;;;0.10;0.10;;;21.70;75.40;;;23.27;63.08;101236.72;2017967;29;20196;-76
2022/08/04 05:18:09;;;;;;;0.10;0.10;;;21.70;75.30;;;23.27;62.99;101237.53;2020353;29;20056;-76
2022/08/04 05:19:23;;;;;;;0.10;0.10;;;21.80;75.20;;;23.30;62.90;101241.41;2023810;29;20052;-76
2022/08/04 05:20:34;;;;;;;0.10;0.10;;;21.80;75.20;;;23.31;62.99;101238.22;2020122;29;20060;-77
2022/08/04 05:21:42;;;;;;;0.10;0.10;;;21.80;75.00;;;23.32;63.03;101237.06;2018494;29;20061;-77
2022/08/04 05:22:53;;;;;;;0.10;0.10;;;21.80;74.80;;;23.36;63.02;101240.53;2021892;29;20102;-76
2022/08/04 05:24:04;;;;;;;0.10;0.10;;;21.90;74.80;;;23.37;63.08;101233.81;2032414;29;20531;-76
2022/08/04 05:25:19;;;;;;;0.10;0.10;;;21.90;74.70;;;23.44;63.02;101232.91;2033490;29;20094;-76
2022/08/04 05:26:29;;;;;;;0.10;0.10;;;22.00;74.80;;;23.49;63.00;101230.47;2027923;29;20143;-76
2022/08/04 05:27:41;;;;;;;0.10;0.10;;;22.00;74.80;;;23.56;62.74;101237.84;2026801;29;20571;-76
2022/08/04 05:28:52;;;;;;;0.10;0.10;;;22.10;74.70;;;23.61;62.23;101234.59;2040779;29;20067;-76
2022/08/04 05:30:02;;;;;;;0.10;0.10;;;22.00;74.30;;;23.60;62.18;101233.84;2034401;29;20091;-76
2022/08/04 05:31:11;;;;;;;0.10;0.10;;;22.10;74.30;;;23.60;62.37;101238.56;2036936;29;20048;-76
2022/08/04 05:32:16;;;;;;;0.10;0.10;;;22.00;74.20;;;23.63;62.44;101231.44;2035174;29;20087;-77
2022/08/04 05:33:26;;;;;;;0.10;0.10;;;22.10;74.30;;;23.69;62.23;101236.03;2032005;29;20056;-77
2022/08/04 05:34:47;;;;;;;0.10;0.10;;;22.10;74.40;;;23.75;62.06;101237.13;2018028;29;20585;-77
2022/08/04 05:35:56;;;;;;;0.17;0.17;;;22.10;74.40;;;23.78;62.18;101228.03;2014383;29;20533;-77
2022/08/04 05:37:22;;;;;;;0.10;0.10;;;22.00;74.50;;;23.83;62.11;101232.28;2028354;29;20164;-76
2022/08/04 05:38:34;;;;;;;0.10;0.10;;;22.00;74.90;;;23.87;62.24;101241.25;2032611;29;20086;-76